Flight Track Log - Related Links

Times and Time Zones

All times are in EDT time to prevent confusion due to time zone crossing. See the EJA877 flight status page for this flight to view local times or setup timezone preferences in your user account.

Time Position Orientation Groundspeed Altitude Reporting Facility
EDT Latitude Longitude Course Direction KTS MPH feet Rate Location/Type
Wed 05:37:17 PM 40.9167 -74.0500 252° West 222 255 2,200  Level New York TRACON
Wed 05:38:17 PM 40.9000 -74.1167 252° West 224 258 5,100 1,976 Climbing New York TRACON
Wed 05:40:07 PM 40.8883 -74.2872 265° West 271 312 7,800 2,107 Climbing New York Center
Wed 05:41:05 PM 40.8786 -74.4047 264° West 291 335 11,000 2,492 Climbing New York Center
Wed 05:42:05 PM 40.8189 -74.5139 234° Southwest 341 392 12,700 2,727 Climbing New York Center
Wed 05:43:06 PM 40.7656 -74.6233 237° Southwest 354 407 16,500 2,876 Climbing New York Center
Wed 05:44:06 PM 40.7142 -74.7272 237° Southwest 354 407 18,500 2,331 Climbing New York Center
Wed 05:45:07 PM 40.6608 -74.8253 234° Southwest 343 395 21,200 2,420 Climbing New York Center
Wed 05:46:05 PM 40.6092 -74.9317 237° Southwest 343 395 23,300 2,441 Climbing New York Center
Wed 05:47:05 PM 40.5508 -75.0428 235° Southwest 354 407 26,000 2,826 Climbing New York Center
Wed 05:48:06 PM 40.4892 -75.1400 230° Southwest 354 407 29,000 2,479 Climbing New York Center
Wed 05:49:06 PM 40.4269 -75.2397 231° Southwest 354 407 31,000 1,815 Climbing New York Center
Wed 05:50:05 PM 40.3647 -75.3417 231° Southwest 359 413 32,600 1,664 Climbing New York Center
Wed 05:51:05 PM 40.3025 -75.4383 230° Southwest 359 413 34,300 1,550 Climbing New York Center
Wed 05:52:05 PM 40.2381 -75.5403 230° Southwest 364 419 35,700 1,240 Climbing New York Center
Wed 05:53:06 PM 40.1814 -75.6503 236° Southwest 364 419 36,800 992 Climbing New York Center
Wed 05:54:06 PM 40.1269 -75.7578 237° Southwest 364 419 37,700 595 Climbing New York Center
Wed 05:55:07 PM 40.0700 -75.8703 237° Southwest 370 426 38,000 153 Climbing New York Center
Wed 05:56:04 PM 40.0111 -75.9800 235° Southwest 397 457 38,000  Level New York Center
Wed 05:57:05 PM 39.9492 -76.1053 237° Southwest 409 471 38,000  Level New York Center
Wed 05:58:05 PM 39.8706 -76.2264 230° Southwest 425 489 38,000  Level New York Center
Wed 05:59:07 PM 39.7922 -76.3419 229° Southwest 432 497 38,000  Level New York Center
Wed 06:00:06 PM 39.7067 -76.4728 230° Southwest 432 497 38,000  Level New York Center
Wed 06:01:05 PM 39.6389 -76.5806 231° Southwest 437 503 38,000  Level New York Center
Wed 06:02:06 PM 39.5600 -76.6981 229° Southwest 437 503 38,000  Level New York Center
Wed 06:02:43 PM 39.5119 -76.7669 228° Southwest 433 498 38,000  Level Washington Center
Wed 06:03:44 PM 39.4339 -76.8839 229° Southwest 433 498 38,000  Level Washington Center
Wed 06:04:41 PM 39.3575 -77.0033 230° Southwest 428 493 38,000  Level Washington Center
Wed 06:05:42 PM 39.2789 -77.1200 229° Southwest 428 493 38,000  Level Washington Center
Wed 06:06:42 PM 39.2003 -77.2333 228° Southwest 428 493 38,000  Level Washington Center
Wed 06:07:42 PM 39.1236 -77.3494 230° Southwest 428 493 38,000  Level Washington Center
Wed 06:08:43 PM 39.0447 -77.4650 229° Southwest 428 493 38,000  Level Washington Center
Wed 06:09:43 PM 38.9678 -77.5806 229° Southwest 428 493 38,000  Level Washington Center
Wed 06:10:41 PM 38.8803 -77.7061 228° Southwest 428 493 38,000  Level Washington Center
Wed 06:11:41 PM 38.8011 -77.8186 228° Southwest 428 493 38,000  Level Washington Center
Wed 06:12:43 PM 38.7194 -77.9411 230° Southwest 440 506 38,000  Level Washington Center
Wed 06:13:41 PM 38.6422 -78.0556 229° Southwest 440 506 38,000  Level Washington Center
Wed 06:14:42 PM 38.5647 -78.1672 228° Southwest 434 499 38,000  Level Washington Center
Wed 06:15:42 PM 38.4850 -78.2811 228° Southwest 428 493 38,000  Level Washington Center
Wed 06:16:44 PM 38.4053 -78.3950 228° Southwest 428 493 38,000  Level Washington Center
Wed 06:17:41 PM 38.3275 -78.5083 229° Southwest 428 493 38,000  Level Washington Center
Wed 06:18:41 PM 38.2519 -78.6192 229° Southwest 423 487 38,000  Level Washington Center
Wed 06:19:42 PM 38.1717 -78.7347 229° Southwest 430 495 38,000  Level Washington Center
Wed 06:20:42 PM 38.0917 -78.8450 227° Southwest 430 495 38,000  Level Washington Center
Wed 06:21:43 PM 38.0200 -78.9472 228° Southwest 430 495 38,000  Level Washington Center
Wed 06:22:43 PM 37.9417 -79.0569 228° Southwest 430 495 38,000  Level Washington Center
Wed 06:23:41 PM 37.8592 -79.1717 228° Southwest 430 495 38,000  Level Washington Center
Wed 06:24:43 PM 37.7764 -79.2858 227° Southwest 430 495 38,000  Level Washington Center
Wed 06:25:41 PM 37.6958 -79.3975 228° Southwest 430 495 38,000  Level Washington Center
Wed 06:26:42 PM 37.6064 -79.5189 227° Southwest 435 501 38,000  Level Washington Center
Wed 06:27:43 PM 37.5319 -79.6197 227° Southwest 435 501 38,000  Level Washington Center
Wed 06:28:41 PM 37.4422 -79.7431 228° Southwest 435 501 38,000  Level Washington Center
Wed 06:30:46 PM 37.2792 -79.9622 227° Southwest 439 505 38,000  Level Atlanta Center
Wed 06:31:46 PM 37.1953 -80.0733 227° Southwest 432 497 38,000  Level Atlanta Center
Wed 06:32:46 PM 37.1156 -80.1842 228° Southwest 432 497 38,000  Level Atlanta Center
Wed 06:33:46 PM 37.0333 -80.2922 226° Southwest 432 497 38,000  Level Atlanta Center
Wed 06:34:46 PM 36.9278 -80.3881 216° Southwest 437 503 38,000  Level Atlanta Center
Wed 06:35:46 PM 36.8261 -80.4731 214° Southwest 437 503 38,000  Level Atlanta Center
Wed 06:36:46 PM 36.7222 -80.5581 213° Southwest 442 509 38,000  Level Atlanta Center
Wed 06:37:46 PM 36.6325 -80.6369 215° Southwest 441 507 38,000  Level Atlanta Center
Wed 06:38:46 PM 36.5328 -80.7186 213° Southwest 441 507 38,000  Level Atlanta Center
Wed 06:39:46 PM 36.4206 -80.8111 214° Southwest 441 507 38,000  Level Atlanta Center
Wed 06:40:46 PM 36.3183 -80.8950 213° Southwest 441 507 38,000  Level Atlanta Center
Wed 06:41:46 PM 36.2225 -80.9761 214° Southwest 436 502 38,000  Level Atlanta Center
Wed 06:42:46 PM 36.1222 -81.0569 213° Southwest 436 502 38,000  Level Atlanta Center
Wed 06:43:46 PM 36.0200 -81.1403 213° Southwest 436 502 38,000  Level Atlanta Center
Wed 06:44:46 PM 35.9217 -81.2208 214° Southwest 436 502 38,000  Level Atlanta Center
Wed 06:45:46 PM 35.8169 -81.3011 212° Southwest 441 507 38,000  Level Atlanta Center
Wed 06:46:46 PM 35.7211 -81.3914 217° Southwest 434 499 38,000  Level Atlanta Center
Wed 06:47:46 PM 35.6164 -81.4739 213° Southwest 445 512 38,000  Level Atlanta Center
Wed 06:48:46 PM 35.5361 -81.5325 211° Southwest 445 512 38,000  Level Atlanta Center
Wed 06:49:46 PM 35.4086 -81.6181 209° Southwest 445 512 38,000  Level Atlanta Center
Wed 06:50:46 PM 35.2903 -81.6494 192° South 435 501 38,000  Level Atlanta Center
Wed 06:51:46 PM 35.1678 -81.6758 190° South 445 512 38,000  Level Atlanta Center
Wed 06:52:46 PM 35.0514 -81.7072 192° South 445 512 38,000  Level Atlanta Center
Wed 06:53:46 PM 34.9308 -81.7308 189° South 445 512 38,000  Level Atlanta Center
Wed 06:54:46 PM 34.8144 -81.7617 192° South 440 506 38,000  Level Atlanta Center
Wed 06:55:46 PM 34.6919 -81.7931 192° South 440 506 38,000  Level Atlanta Center
Wed 06:56:46 PM 34.5756 -81.8136 188° South 440 506 38,000  Level Atlanta Center
Wed 06:57:46 PM 34.4569 -81.8419 191° South 440 506 38,000  Level Atlanta Center
Wed 06:58:46 PM 34.3386 -81.8703 191° South 440 506 38,000  Level Atlanta Center
Wed 06:59:46 PM 34.2200 -81.8958 190° South 440 506 38,000  Level Atlanta Center
Wed 07:00:46 PM 34.1017 -81.9239 191° South 440 506 38,000  Level Atlanta Center
Wed 07:01:46 PM 33.9789 -81.9519 191° South 440 506 38,000  Level Atlanta Center
Wed 07:02:46 PM 33.8583 -81.9825 192° South 445 512 38,000  Level Atlanta Center
Wed 07:03:46 PM 33.7378 -82.0103 191° South 445 512 38,000  Level Atlanta Center
Wed 07:04:46 PM 33.6150 -82.0383 191° South 445 512 38,000  Level Atlanta Center
Wed 07:05:46 PM 33.5175 -82.0606 191° South 445 512 38,000  Level Atlanta Center
Wed 07:06:46 PM 33.3739 -82.0961 192° South 445 512 38,000  Level Atlanta Center
Wed 07:07:46 PM 33.2553 -82.1211 190° South 445 512 38,000  Level Atlanta Center
Wed 07:08:46 PM 33.1472 -82.1458 191° South 445 512 38,000  Level Atlanta Center
Wed 07:11:02 PM 32.8642 -82.2125 191° South 458 527 38,000  Level Jacksonville Center
Wed 07:12:02 PM 32.7453 -82.2356 189° South 446 513 38,000  Level Jacksonville Center
Wed 07:13:02 PM 32.6264 -82.2636 191° South 441 507 38,000  Level Jacksonville Center
Wed 07:14:02 PM 32.5200 -82.2864 190° South 441 507 38,000  Level Jacksonville Center
Wed 07:15:02 PM 32.3908 -82.3169 191° South 447 514 38,000  Level Jacksonville Center
Wed 07:16:02 PM 32.2633 -82.3053 176° South 447 514 38,000  Level Jacksonville Center
Wed 07:17:02 PM 32.1400 -82.2964 177° South 442 509 38,000  Level Jacksonville Center
Wed 07:18:02 PM 32.0272 -82.2847 175° South 447 514 38,000  Level Jacksonville Center
Wed 07:19:02 PM 31.8914 -82.2736 176° South 446 513 38,000  Level Jacksonville Center
Wed 07:20:02 PM 31.7661 -82.2622 176° South 446 513 38,000  Level Jacksonville Center
Wed 07:21:02 PM 31.6431 -82.2531 176° South 446 513 38,000  Level Jacksonville Center
Wed 07:22:02 PM 31.5178 -82.2467 178° South 446 513 38,000  Level Jacksonville Center
Wed 07:23:02 PM 31.3922 -82.2331 175° South 446 513 38,000  Level Jacksonville Center
Wed 07:24:02 PM 31.2669 -82.2267 178° South 451 519 38,000  Level Jacksonville Center
Wed 07:25:02 PM 31.1439 -82.2178 176° South 451 519 38,000  Level Jacksonville Center
Wed 07:26:02 PM 31.0183 -82.2042 175° South 451 519 38,000  Level Jacksonville Center
Wed 07:27:02 PM 30.8953 -82.1928 175° South 451 519 38,000  Level Jacksonville Center
Wed 07:28:02 PM 30.7739 -82.1842 177° South 446 513 38,000  Level Jacksonville Center
Wed 07:29:02 PM 30.6528 -82.1731 175° South 441 507 38,000  Level Jacksonville Center
Wed 07:30:02 PM 30.5419 -82.1569 173° South 446 513 38,000  Level Jacksonville Center
Wed 07:31:02 PM 30.4189 -82.1483 177° South 446 513 38,000  Level Jacksonville Center
Wed 07:32:02 PM 30.2956 -82.1397 177° South 446 513 38,000  Level Jacksonville Center
Wed 07:33:02 PM 30.1725 -82.1286 176° South 446 513 38,000  Level Jacksonville Center
Wed 07:34:02 PM 30.0511 -82.1031 170° South 441 507 38,000  Level Jacksonville Center
Wed 07:35:02 PM 29.9258 -82.0825 172° South 448 516 38,000  Level Jacksonville Center
Wed 07:36:02 PM 29.8003 -82.0572 170° South 448 516 38,000  Level Jacksonville Center
Wed 07:37:02 PM 29.6622 -82.0297 170° South 454 522 38,000  Level Jacksonville Center
Wed 07:38:02 PM 29.5517 -82.0092 171° South 454 522 38,000 -1,000 Level Jacksonville Center
Wed 07:39:02 PM 29.4303 -81.9842 170° South 454 522 36,000 -1,500 Descending Jacksonville Center
Wed 07:40:02 PM 29.3092 -81.9614 171° South 448 516 35,000 -500 Descending Jacksonville Center
Wed 07:41:02 PM 29.1856 -81.9317 168° South 448 516 35,000 -630 Level Jacksonville Center
Wed 07:43:22 PM 28.8889 -81.8744 170° South 461 531 32,900 -1,320 Descending Miami Center
Wed 07:44:22 PM 28.7667 -81.8522 171° South 461 531 30,600 -2,300 Descending Miami Center
Wed 07:45:22 PM 28.6425 -81.8256 169° South 461 531 28,300 -1,800 Descending Miami Center
Wed 07:46:22 PM 28.5181 -81.7986 169° South 461 531 27,000 -1,450 Descending Miami Center
Wed 07:47:22 PM 28.3942 -81.7625 166° South 461 531 25,400 -1,500 Descending Miami Center
Wed 07:48:22 PM 28.2703 -81.7289 167° South 467 537 24,000 -750 Descending Miami Center
Wed 07:49:22 PM 28.1544 -81.6956 166° South 456 525 23,900 -950 Descending Miami Center
Wed 07:50:22 PM 28.0342 -81.6786 173° South 445 512 22,100 -1,900 Descending Miami Center
Wed 07:51:22 PM 27.9269 -81.7022 191° South 413 475 20,100 -1,950 Descending Miami Center
Wed 07:52:22 PM 27.8172 -81.7328 194° South 405 466 18,200 -1,500 Descending Miami Center
Wed 07:53:22 PM 27.7142 -81.7611 194° South 393 452 17,100 -600 Descending Miami Center
Wed 07:54:22 PM 27.5994 -81.7586 179° South 406 467 17,000 -50 Descending Miami Center
Wed 07:55:22 PM 27.5006 -81.7217 162° South 411 473 17,000 -50 Level Miami Center
Wed 07:56:22 PM 27.3978 -81.6706 156° South 406 467 16,900 -550 Descending Miami Center
Wed 07:57:22 PM 27.2911 -81.6194 157° South 411 473 15,900 -1,600 Descending Miami Center
Wed 07:58:22 PM 27.1861 -81.5683 157° South 411 473 13,700 -2,100 Descending Miami Center
Wed 07:59:22 PM 27.0856 -81.5222 158° South 411 473 11,700 -1,800 Descending Miami Center
Wed 08:00:22 PM 26.9908 -81.4742 156° South 384 442 10,100 -850 Descending Miami Center
Wed 08:01:22 PM 26.8944 -81.4239 155° Southeast 379 436 10,000 -50 Descending Miami Center
Wed 08:02:22 PM 26.7825 -81.3939 167° South 379 436 10,000  Level Miami Center
Wed 08:03:22 PM 26.6781 -81.3969 181° South 379 436 10,000  Level Miami Center
Wed 08:04:22 PM 26.5717 -81.3997 181° South 384 442 10,000  Level Miami Center
Wed 08:05:22 PM 26.4769 -81.4192 190° South 384 442 10,000  Level Miami Center
Wed 08:06:22 PM 26.3903 -81.4531 199° South 365 420 10,000  Level Miami Center
Wed 08:08:00 PM 26.2523 -81.5620 241° Southwest  Level FlightAware Approximate
Wed 08:15:00 PM 26.1500 -81.7667 246° West  Level FlightAware Approximate
Wed 08:16:00 PM 26.1524 -81.7756 246° West  Level Estimated
Wed 08:17:00 PM 26.1524 -81.7756 246° West  Level Estimated
Wed 08:18:00 PM 26.1524 -81.7756 246° West  Level Estimated
Wed 08:19:00 PM 26.1524 -81.7756 246° West  Level Estimated
Wed 08:20:00 PM 26.1524 -81.7756 246° West  Level Estimated
Wed 08:21:00 PM 26.1524 -81.7756 246° West  Level Estimated
Wed 08:22:00 PM 26.1524 -81.7756 246° West  Level Estimated

Login

Don't have an account? Register now (free) for customized features, flight alerts, and more!